sensor_id;sensor_type;location;lat;lon;timestamp;pressure;altitude;pressure_sealevel;temperature
5571;BMP180;2808;51.240;6.794;2023-12-14T00:01:34;100162.00;;;8.70
5571;BMP180;2808;51.240;6.794;2023-12-14T00:04:05;100173.00;;;8.70
5571;BMP180;2808;51.240;6.794;2023-12-14T00:06:32;100168.00;;;8.70
5571;BMP180;2808;51.240;6.794;2023-12-14T00:09:00;100167.00;;;8.70
5571;BMP180;2808;51.240;6.794;2023-12-14T00:11:28;100177.00;;;8.70
5571;BMP180;2808;51.240;6.794;2023-12-14T00:13:56;100176.00;;;8.70
5571;BMP180;2808;51.240;6.794;2023-12-14T00:16:24;100187.00;;;8.70
5571;BMP180;2808;51.240;6.794;2023-12-14T00:18:56;100188.00;;;8.70
5571;BMP180;2808;51.240;6.794;2023-12-14T00:21:31;100193.00;;;8.70
5571;BMP180;2808;51.240;6.794;2023-12-14T00:24:02;100189.00;;;8.70
5571;BMP180;2808;51.240;6.794;2023-12-14T00:26:29;100201.00;;;8.70
5571;BMP180;2808;51.240;6.794;2023-12-14T00:28:57;100210.00;;;8.60
5571;BMP180;2808;51.240;6.794;2023-12-14T00:31:30;100203.00;;;8.60
5571;BMP180;2808;51.240;6.794;2023-12-14T00:34:00;100214.00;;;8.60
5571;BMP180;2808;51.240;6.794;2023-12-14T00:36:35;100215.00;;;8.50
5571;BMP180;2808;51.240;6.794;2023-12-14T00:39:04;100218.00;;;8.50
5571;BMP180;2808;51.240;6.794;2023-12-14T00:41:39;100232.00;;;8.50
5571;BMP180;2808;51.240;6.794;2023-12-14T00:44:15;100232.00;;;8.50
5571;BMP180;2808;51.240;6.794;2023-12-14T00:46:50;100248.00;;;8.50
5571;BMP180;2808;51.240;6.794;2023-12-14T00:49:21;100253.00;;;8.50
5571;BMP180;2808;51.240;6.794;2023-12-14T00:51:50;100253.00;;;8.50
5571;BMP180;2808;51.240;6.794;2023-12-14T00:54:20;100251.00;;;8.40
5571;BMP180;2808;51.240;6.794;2023-12-14T00:56:50;100266.00;;;8.40
5571;BMP180;2808;51.240;6.794;2023-12-14T00:59:21;100273.00;;;8.40
5571;BMP180;2808;51.240;6.794;2023-12-14T01:01:49;100275.00;;;8.40
5571;BMP180;2808;51.240;6.794;2023-12-14T01:04:19;100282.00;;;8.40
5571;BMP180;2808;51.240;6.794;2023-12-14T01:06:48;100284.00;;;8.40
5571;BMP180;2808;51.240;6.794;2023-12-14T01:09:17;100295.00;;;8.40
5571;BMP180;2808;51.240;6.794;2023-12-14T01:11:47;100300.00;;;8.40
5571;BMP180;2808;51.240;6.794;2023-12-14T01:14:24;100307.00;;;8.30
5571;BMP180;2808;51.240;6.794;2023-12-14T01:16:53;100311.00;;;8.30
5571;BMP180;2808;51.240;6.794;2023-12-14T01:19:21;100310.00;;;8.30
5571;BMP180;2808;51.240;6.794;2023-12-14T01:21:53;100320.00;;;8.30
5571;BMP180;2808;51.240;6.794;2023-12-14T01:24:24;100317.00;;;8.30
5571;BMP180;2808;51.240;6.794;2023-12-14T01:26:51;100326.00;;;8.30
5571;BMP180;2808;51.240;6.794;2023-12-14T01:29:24;100325.00;;;8.30
5571;BMP180;2808;51.240;6.794;2023-12-14T01:31:52;100325.00;;;8.30
5571;BMP180;2808;51.240;6.794;2023-12-14T01:34:19;100339.00;;;8.30
5571;BMP180;2808;51.240;6.794;2023-12-14T01:36:47;100341.00;;;8.20
5571;BMP180;2808;51.240;6.794;2023-12-14T01:39:15;100350.00;;;8.20
5571;BMP180;2808;51.240;6.794;2023-12-14T01:41:46;100359.00;;;8.10
5571;BMP180;2808;51.240;6.794;2023-12-14T01:44:15;100361.00;;;8.00
5571;BMP180;2808;51.240;6.794;2023-12-14T01:46:45;100364.00;;;8.00
5571;BMP180;2808;51.240;6.794;2023-12-14T01:49:13;100378.00;;;7.90
5571;BMP180;2808;51.240;6.794;2023-12-14T01:51:41;100389.00;;;7.90
5571;BMP180;2808;51.240;6.794;2023-12-14T01:54:09;100381.00;;;7.80
5571;BMP180;2808;51.240;6.794;2023-12-14T01:56:37;100404.00;;;7.70
5571;BMP180;2808;51.240;6.794;2023-12-14T01:59:07;100402.00;;;7.70
5571;BMP180;2808;51.240;6.794;2023-12-14T02:01:41;100411.00;;;7.70
5571;BMP180;2808;51.240;6.794;2023-12-14T02:04:12;100415.00;;;7.60
5571;BMP180;2808;51.240;6.794;2023-12-14T02:06:44;100420.00;;;7.60
5571;BMP180;2808;51.240;6.794;2023-12-14T02:09:13;100427.00;;;7.60
5571;BMP180;2808;51.240;6.794;2023-12-14T02:11:42;100416.00;;;7.60
5571;BMP180;2808;51.240;6.794;2023-12-14T02:14:12;100422.00;;;7.60
5571;BMP180;2808;51.240;6.794;2023-12-14T02:16:40;100428.00;;;7.50
5571;BMP180;2808;51.240;6.794;2023-12-14T02:19:14;100428.00;;;7.50
5571;BMP180;2808;51.240;6.794;2023-12-14T02:21:42;100427.00;;;7.50
5571;BMP180;2808;51.240;6.794;2023-12-14T02:24:11;100430.00;;;7.40
5571;BMP180;2808;51.240;6.794;2023-12-14T02:26:39;100442.00;;;7.40
5571;BMP180;2808;51.240;6.794;2023-12-14T02:29:06;100445.00;;;7.40
5571;BMP180;2808;51.240;6.794;2023-12-14T02:31:39;100446.00;;;7.30
5571;BMP180;2808;51.240;6.794;2023-12-14T02:34:10;100460.00;;;7.30
5571;BMP180;2808;51.240;6.794;2023-12-14T02:36:38;100458.00;;;7.40
5571;BMP180;2808;51.240;6.794;2023-12-14T02:39:05;100462.00;;;7.40
5571;BMP180;2808;51.240;6.794;2023-12-14T02:41:37;100471.00;;;7.40
5571;BMP180;2808;51.240;6.794;2023-12-14T02:44:05;100479.00;;;7.50
5571;BMP180;2808;51.240;6.794;2023-12-14T02:46:33;100483.00;;;7.40
5571;BMP180;2808;51.240;6.794;2023-12-14T02:49:06;100479.00;;;7.40
5571;BMP180;2808;51.240;6.794;2023-12-14T02:51:34;100484.00;;;7.40
5571;BMP180;2808;51.240;6.794;2023-12-14T02:54:02;100488.00;;;7.40
5571;BMP180;2808;51.240;6.794;2023-12-14T02:56:36;100490.00;;;7.40
5571;BMP180;2808;51.240;6.794;2023-12-14T02:59:06;100501.00;;;7.40
5571;BMP180;2808;51.240;6.794;2023-12-14T03:01:34;100500.00;;;7.30
5571;BMP180;2808;51.240;6.794;2023-12-14T03:04:05;100511.00;;;7.30
5571;BMP180;2808;51.240;6.794;2023-12-14T03:06:34;100524.00;;;7.30
5571;BMP180;2808;51.240;6.794;2023-12-14T03:09:02;100530.00;;;7.20
5571;BMP180;2808;51.240;6.794;2023-12-14T03:11:30;100535.00;;;7.20
5571;BMP180;2808;51.240;6.794;2023-12-14T03:13:59;100535.00;;;7.10
5571;BMP180;2808;51.240;6.794;2023-12-14T03:16:32;100531.00;;;7.10
5571;BMP180;2808;51.240;6.794;2023-12-14T03:19:04;100532.00;;;7.10
5571;BMP180;2808;51.240;6.794;2023-12-14T03:21:35;100532.00;;;7.10
5571;BMP180;2808;51.240;6.794;2023-12-14T03:24:05;100531.00;;;7.10
5571;BMP180;2808;51.240;6.794;2023-12-14T03:26:33;100543.00;;;7.10
5571;BMP180;2808;51.240;6.794;2023-12-14T03:29:08;100553.00;;;7.10
5571;BMP180;2808;51.240;6.794;2023-12-14T03:31:42;100551.00;;;7.10
5571;BMP180;2808;51.240;6.794;2023-12-14T03:34:11;100546.00;;;7.10
5571;BMP180;2808;51.240;6.794;2023-12-14T03:36:39;100557.00;;;7.10
5571;BMP180;2808;51.240;6.794;2023-12-14T03:39:10;100557.00;;;7.10
5571;BMP180;2808;51.240;6.794;2023-12-14T03:41:42;100568.00;;;7.10
5571;BMP180;2808;51.240;6.794;2023-12-14T03:44:12;100568.00;;;7.10
5571;BMP180;2808;51.240;6.794;2023-12-14T03:46:43;100565.00;;;7.10
5571;BMP180;2808;51.240;6.794;2023-12-14T03:49:14;100567.00;;;7.10
5571;BMP180;2808;51.240;6.794;2023-12-14T03:51:41;100572.00;;;7.10
5571;BMP180;2808;51.240;6.794;2023-12-14T03:54:11;100580.00;;;7.10
5571;BMP180;2808;51.240;6.794;2023-12-14T03:56:39;100582.00;;;7.10
5571;BMP180;2808;51.240;6.794;2023-12-14T03:59:07;100593.00;;;7.10
5571;BMP180;2808;51.240;6.794;2023-12-14T04:01:36;100600.00;;;7.10
5571;BMP180;2808;51.240;6.794;2023-12-14T04:04:07;100600.00;;;7.10
5571;BMP180;2808;51.240;6.794;2023-12-14T04:06:38;100604.00;;;7.10
5571;BMP180;2808;51.240;6.794;2023-12-14T04:09:06;100606.00;;;7.10
5571;BMP180;2808;51.240;6.794;2023-12-14T04:11:34;100609.00;;;7.10
5571;BMP180;2808;51.240;6.794;2023-12-14T04:14:07;100623.00;;;7.00
5571;BMP180;2808;51.240;6.794;2023-12-14T04:16:42;100623.00;;;7.00
5571;BMP180;2808;51.240;6.794;2023-12-14T04:19:15;100636.00;;;6.90
5571;BMP180;2808;51.240;6.794;2023-12-14T04:21:48;100629.00;;;6.80
5571;BMP180;2808;51.240;6.794;2023-12-14T04:24:16;100639.00;;;6.70
5571;BMP180;2808;51.240;6.794;2023-12-14T04:26:46;100637.00;;;6.70
5571;BMP180;2808;51.240;6.794;2023-12-14T04:29:16;100647.00;;;6.70
5571;BMP180;2808;51.240;6.794;2023-12-14T04:31:45;100651.00;;;6.80
5571;BMP180;2808;51.240;6.794;2023-12-14T04:34:16;100649.00;;;6.80
5571;BMP180;2808;51.240;6.794;2023-12-14T04:36:48;100655.00;;;6.70
5571;BMP180;2808;51.240;6.794;2023-12-14T04:39:23;100655.00;;;6.70
5571;BMP180;2808;51.240;6.794;2023-12-14T04:41:59;100655.00;;;6.70
5571;BMP180;2808;51.240;6.794;2023-12-14T04:44:27;100669.00;;;6.70
5571;BMP180;2808;51.240;6.794;2023-12-14T04:46:56;100662.00;;;6.70
5571;BMP180;2808;51.240;6.794;2023-12-14T04:49:23;100677.00;;;6.70
5571;BMP180;2808;51.240;6.794;2023-12-14T04:51:51;100676.00;;;6.70
5571;BMP180;2808;51.240;6.794;2023-12-14T04:54:20;100680.00;;;6.70
5571;BMP180;2808;51.240;6.794;2023-12-14T04:56:52;100681.00;;;6.60
5571;BMP180;2808;51.240;6.794;2023-12-14T04:59:22;100685.00;;;6.60
5571;BMP180;2808;51.240;6.794;2023-12-14T05:01:50;100686.00;;;6.60
5571;BMP180;2808;51.240;6.794;2023-12-14T05:04:22;100689.00;;;6.60
5571;BMP180;2808;51.240;6.794;2023-12-14T05:06:50;100686.00;;;6.60
5571;BMP180;2808;51.240;6.794;2023-12-14T05:09:20;100698.00;;;6.60
5571;BMP180;2808;51.240;6.794;2023-12-14T05:11:52;100698.00;;;6.50
5571;BMP180;2808;51.240;6.794;2023-12-14T05:14:22;100709.00;;;6.60
5571;BMP180;2808;51.240;6.794;2023-12-14T05:16:55;100703.00;;;6.60
5571;BMP180;2808;51.240;6.794;2023-12-14T05:19:24;100704.00;;;6.60
5571;BMP180;2808;51.240;6.794;2023-12-14T05:21:52;100715.00;;;6.60
5571;BMP180;2808;51.240;6.794;2023-12-14T05:24:21;100711.00;;;6.60
5571;BMP180;2808;51.240;6.794;2023-12-14T05:26:55;100724.00;;;6.50
5571;BMP180;2808;51.240;6.794;2023-12-14T05:29:28;100723.00;;;6.50
5571;BMP180;2808;51.240;6.794;2023-12-14T05:32:03;100724.00;;;6.50
5571;BMP180;2808;51.240;6.794;2023-12-14T05:34:44;100744.00;;;6.50
5571;BMP180;2808;51.240;6.794;2023-12-14T05:37:17;100746.00;;;6.50
5571;BMP180;2808;51.240;6.794;2023-12-14T05:39:45;100740.00;;;6.50
5571;BMP180;2808;51.240;6.794;2023-12-14T05:42:15;100755.00;;;6.50
5571;BMP180;2808;51.240;6.794;2023-12-14T05:44:45;100759.00;;;6.60
5571;BMP180;2808;51.240;6.794;2023-12-14T05:47:12;100756.00;;;6.60
5571;BMP180;2808;51.240;6.794;2023-12-14T05:49:43;100756.00;;;6.60
5571;BMP180;2808;51.240;6.794;2023-12-14T05:52:11;100755.00;;;6.70
5571;BMP180;2808;51.240;6.794;2023-12-14T05:54:42;100767.00;;;6.70
5571;BMP180;2808;51.240;6.794;2023-12-14T05:57:09;100766.00;;;6.70
5571;BMP180;2808;51.240;6.794;2023-12-14T05:59:39;100779.00;;;6.70
5571;BMP180;2808;51.240;6.794;2023-12-14T06:02:06;100786.00;;;6.70
5571;BMP180;2808;51.240;6.794;2023-12-14T06:04:34;100795.00;;;6.80
5571;BMP180;2808;51.240;6.794;2023-12-14T06:07:05;100791.00;;;6.80
5571;BMP180;2808;51.240;6.794;2023-12-14T06:09:36;100797.00;;;6.90
5571;BMP180;2808;51.240;6.794;2023-12-14T06:12:08;100813.00;;;6.80
5571;BMP180;2808;51.240;6.794;2023-12-14T06:14:36;100810.00;;;6.80
5571;BMP180;2808;51.240;6.794;2023-12-14T06:17:04;100814.00;;;6.80
5571;BMP180;2808;51.240;6.794;2023-12-14T06:19:34;100830.00;;;6.70
5571;BMP180;2808;51.240;6.794;2023-12-14T06:22:05;100836.00;;;6.70
5571;BMP180;2808;51.240;6.794;2023-12-14T06:24:32;100843.00;;;6.70
5571;BMP180;2808;51.240;6.794;2023-12-14T06:27:00;100843.00;;;6.80
5571;BMP180;2808;51.240;6.794;2023-12-14T06:29:27;100847.00;;;6.70
5571;BMP180;2808;51.240;6.794;2023-12-14T06:31:54;100857.00;;;6.70
5571;BMP180;2808;51.240;6.794;2023-12-14T06:34:22;100850.00;;;6.70
5571;BMP180;2808;51.240;6.794;2023-12-14T06:36:50;100865.00;;;6.70
5571;BMP180;2808;51.240;6.794;2023-12-14T06:39:19;100866.00;;;6.70
5571;BMP180;2808;51.240;6.794;2023-12-14T06:41:59;100881.00;;;6.60
5571;BMP180;2808;51.240;6.794;2023-12-14T06:44:31;100888.00;;;6.60
5571;BMP180;2808;51.240;6.794;2023-12-14T06:46:59;100891.00;;;6.60
5571;BMP180;2808;51.240;6.794;2023-12-14T06:49:26;100890.00;;;6.60
5571;BMP180;2808;51.240;6.794;2023-12-14T06:51:56;100898.00;;;6.70
5571;BMP180;2808;51.240;6.794;2023-12-14T06:54:25;100892.00;;;6.80
5571;BMP180;2808;51.240;6.794;2023-12-14T06:56:53;100896.00;;;6.80
5571;BMP180;2808;51.240;6.794;2023-12-14T06:59:20;100905.00;;;6.80
5571;BMP180;2808;51.240;6.794;2023-12-14T07:01:48;100908.00;;;6.90
5571;BMP180;2808;51.240;6.794;2023-12-14T07:04:16;100906.00;;;6.90
5571;BMP180;2808;51.240;6.794;2023-12-14T07:06:50;100914.00;;;6.90
5571;BMP180;2808;51.240;6.794;2023-12-14T07:09:18;100918.00;;;7.00
5571;BMP180;2808;51.240;6.794;2023-12-14T07:11:47;100916.00;;;7.10
5571;BMP180;2808;51.240;6.794;2023-12-14T07:14:15;100929.00;;;7.10
5571;BMP180;2808;51.240;6.794;2023-12-14T07:16:43;100933.00;;;6.90
5571;BMP180;2808;51.240;6.794;2023-12-14T07:19:11;100934.00;;;6.90
5571;BMP180;2808;51.240;6.794;2023-12-14T07:21:38;100941.00;;;6.80
5571;BMP180;2808;51.240;6.794;2023-12-14T07:24:06;100955.00;;;6.80
5571;BMP180;2808;51.240;6.794;2023-12-14T07:26:34;100965.00;;;6.80
5571;BMP180;2808;51.240;6.794;2023-12-14T07:29:04;100967.00;;;6.80
5571;BMP180;2808;51.240;6.794;2023-12-14T07:31:31;100977.00;;;6.80
5571;BMP180;2808;51.240;6.794;2023-12-14T07:34:03;100980.00;;;6.80
5571;BMP180;2808;51.240;6.794;2023-12-14T07:36:31;100984.00;;;6.70
5571;BMP180;2808;51.240;6.794;2023-12-14T07:38:58;100993.00;;;6.70
5571;BMP180;2808;51.240;6.794;2023-12-14T07:41:27;100982.00;;;6.70
5571;BMP180;2808;51.240;6.794;2023-12-14T07:43:56;101002.00;;;6.60
5571;BMP180;2808;51.240;6.794;2023-12-14T07:46:25;101006.00;;;6.60
5571;BMP180;2808;51.240;6.794;2023-12-14T07:48:53;101006.00;;;6.60
5571;BMP180;2808;51.240;6.794;2023-12-14T07:51:20;101006.00;;;6.60
5571;BMP180;2808;51.240;6.794;2023-12-14T07:53:48;101011.00;;;6.60
5571;BMP180;2808;51.240;6.794;2023-12-14T07:56:16;101010.00;;;6.60
5571;BMP180;2808;51.240;6.794;2023-12-14T07:58:43;101028.00;;;6.60
5571;BMP180;2808;51.240;6.794;2023-12-14T08:01:13;101028.00;;;6.60
5571;BMP180;2808;51.240;6.794;2023-12-14T08:04:09;101025.00;;;6.50
5571;BMP180;2808;51.240;6.794;2023-12-14T08:06:40;101035.00;;;6.50
5571;BMP180;2808;51.240;6.794;2023-12-14T08:09:11;101036.00;;;6.50
5571;BMP180;2808;51.240;6.794;2023-12-14T08:11:40;101044.00;;;6.50
5571;BMP180;2808;51.240;6.794;2023-12-14T08:14:10;101059.00;;;6.50
5571;BMP180;2808;51.240;6.794;2023-12-14T08:16:38;101058.00;;;6.60
5571;BMP180;2808;51.240;6.794;2023-12-14T08:19:11;101061.00;;;6.50
5571;BMP180;2808;51.240;6.794;2023-12-14T08:21:42;101069.00;;;6.50
5571;BMP180;2808;51.240;6.794;2023-12-14T08:24:12;101073.00;;;6.50
5571;BMP180;2808;51.240;6.794;2023-12-14T08:26:40;101084.00;;;6.50
5571;BMP180;2808;51.240;6.794;2023-12-14T08:29:07;101084.00;;;6.60
5571;BMP180;2808;51.240;6.794;2023-12-14T08:31:37;101104.00;;;6.60
5571;BMP180;2808;51.240;6.794;2023-12-14T08:34:11;101101.00;;;6.60
5571;BMP180;2808;51.240;6.794;2023-12-14T08:36:38;101108.00;;;6.60
5571;BMP180;2808;51.240;6.794;2023-12-14T08:39:06;101108.00;;;6.60
5571;BMP180;2808;51.240;6.794;2023-12-14T08:41:34;101118.00;;;6.50
5571;BMP180;2808;51.240;6.794;2023-12-14T08:44:01;101119.00;;;6.50
5571;BMP180;2808;51.240;6.794;2023-12-14T08:46:39;101130.00;;;6.50
5571;BMP180;2808;51.240;6.794;2023-12-14T08:49:08;101139.00;;;6.50
5571;BMP180;2808;51.240;6.794;2023-12-14T08:51:39;101140.00;;;6.50
5571;BMP180;2808;51.240;6.794;2023-12-14T08:54:07;101143.00;;;6.50
5571;BMP180;2808;51.240;6.794;2023-12-14T08:56:35;101145.00;;;6.50
5571;BMP180;2808;51.240;6.794;2023-12-14T08:59:03;101151.00;;;6.50
5571;BMP180;2808;51.240;6.794;2023-12-14T09:01:31;101154.00;;;6.50
5571;BMP180;2808;51.240;6.794;2023-12-14T09:03:58;101160.00;;;6.40
5571;BMP180;2808;51.240;6.794;2023-12-14T09:06:28;101169.00;;;6.50
5571;BMP180;2808;51.240;6.794;2023-12-14T09:08:57;101175.00;;;6.40
5571;BMP180;2808;51.240;6.794;2023-12-14T09:12:01;101179.00;;;6.50
5571;BMP180;2808;51.240;6.794;2023-12-14T09:15:21;101170.00;;;6.50
5571;BMP180;2808;51.240;6.794;2023-12-14T09:36:13;101207.00;;;6.50
5571;BMP180;2808;51.240;6.794;2023-12-14T09:38:38;101203.00;;;6.50
5571;BMP180;2808;51.240;6.794;2023-12-14T09:41:15;101199.00;;;6.50
5571;BMP180;2808;51.240;6.794;2023-12-14T09:44:21;101203.00;;;6.60
5571;BMP180;2808;51.240;6.794;2023-12-14T09:47:03;101208.00;;;6.60
5571;BMP180;2808;51.240;6.794;2023-12-14T09:49:34;101215.00;;;6.50
5571;BMP180;2808;51.240;6.794;2023-12-14T09:52:13;101220.00;;;6.50
5571;BMP180;2808;51.240;6.794;2023-12-14T09:55:01;101223.00;;;6.50
5571;BMP180;2808;51.240;6.794;2023-12-14T09:57:50;101225.00;;;6.50
5571;BMP180;2808;51.240;6.794;2023-12-14T10:00:35;101231.00;;;6.50
5571;BMP180;2808;51.240;6.794;2023-12-14T10:03:37;101237.00;;;6.50
5571;BMP180;2808;51.240;6.794;2023-12-14T10:06:38;101229.00;;;6.50
5571;BMP180;2808;51.240;6.794;2023-12-14T10:17:18;101257.00;;;6.70
5571;BMP180;2808;51.240;6.794;2023-12-14T10:23:28;101283.00;;;6.60
5571;BMP180;2808;51.240;6.794;2023-12-14T10:26:09;101295.00;;;6.60
5571;BMP180;2808;51.240;6.794;2023-12-14T10:28:44;101300.00;;;6.60
5571;BMP180;2808;51.240;6.794;2023-12-14T10:31:13;101299.00;;;6.60
5571;BMP180;2808;51.240;6.794;2023-12-14T10:33:46;101311.00;;;6.60
5571;BMP180;2808;51.240;6.794;2023-12-14T10:36:16;101314.00;;;6.50
5571;BMP180;2808;51.240;6.794;2023-12-14T10:38:53;101316.00;;;6.50
5571;BMP180;2808;51.240;6.794;2023-12-14T10:41:28;101313.00;;;6.50
5571;BMP180;2808;51.240;6.794;2023-12-14T10:44:09;101314.00;;;6.50
5571;BMP180;2808;51.240;6.794;2023-12-14T10:46:55;101312.00;;;6.50
5571;BMP180;2808;51.240;6.794;2023-12-14T10:49:34;101315.00;;;6.50
5571;BMP180;2808;51.240;6.794;2023-12-14T10:52:12;101324.00;;;6.60
5571;BMP180;2808;51.240;6.794;2023-12-14T10:54:46;101325.00;;;6.70
5571;BMP180;2808;51.240;6.794;2023-12-14T10:57:17;101320.00;;;6.70
5571;BMP180;2808;51.240;6.794;2023-12-14T10:59:44;101327.00;;;6.80
5571;BMP180;2808;51.240;6.794;2023-12-14T11:02:15;101325.00;;;6.80
5571;BMP180;2808;51.240;6.794;2023-12-14T11:05:03;101325.00;;;6.70
5571;BMP180;2808;51.240;6.794;2023-12-14T11:07:46;101328.00;;;6.70
5571;BMP180;2808;51.240;6.794;2023-12-14T11:10:14;101341.00;;;6.60
5571;BMP180;2808;51.240;6.794;2023-12-14T11:13:01;101339.00;;;6.60
5571;BMP180;2808;51.240;6.794;2023-12-14T11:15:30;101348.00;;;6.60
5571;BMP180;2808;51.240;6.794;2023-12-14T11:18:33;101351.00;;;6.60
5571;BMP180;2808;51.240;6.794;2023-12-14T11:21:02;101346.00;;;6.70
5571;BMP180;2808;51.240;6.794;2023-12-14T11:23:34;101356.00;;;6.70
5571;BMP180;2808;51.240;6.794;2023-12-14T11:26:04;101363.00;;;6.80
5571;BMP180;2808;51.240;6.794;2023-12-14T11:28:36;101370.00;;;6.80
5571;BMP180;2808;51.240;6.794;2023-12-14T11:31:04;101373.00;;;6.80
5571;BMP180;2808;51.240;6.794;2023-12-14T11:33:33;101377.00;;;6.90
5571;BMP180;2808;51.240;6.794;2023-12-14T11:36:03;101388.00;;;6.90
5571;BMP180;2808;51.240;6.794;2023-12-14T11:38:31;101377.00;;;6.90
5571;BMP180;2808;51.240;6.794;2023-12-14T11:42:25;101372.00;;;6.90
5571;BMP180;2808;51.240;6.794;2023-12-14T11:44:52;101383.00;;;6.90
5571;BMP180;2808;51.240;6.794;2023-12-14T11:47:41;101380.00;;;6.90
5571;BMP180;2808;51.240;6.794;2023-12-14T11:53:55;101392.00;;;6.80
5571;BMP180;2808;51.240;6.794;2023-12-14T11:56:38;101393.00;;;6.70
5571;BMP180;2808;51.240;6.794;2023-12-14T11:59:14;101392.00;;;6.80
5571;BMP180;2808;51.240;6.794;2023-12-14T12:02:09;101395.00;;;6.80
5571;BMP180;2808;51.240;6.794;2023-12-14T12:11:53;101389.00;;;6.80
5571;BMP180;2808;51.240;6.794;2023-12-14T12:14:21;101390.00;;;6.80
5571;BMP180;2808;51.240;6.794;2023-12-14T12:16:55;101398.00;;;6.70
5571;BMP180;2808;51.240;6.794;2023-12-14T12:20:04;101397.00;;;6.70
5571;BMP180;2808;51.240;6.794;2023-12-14T12:23:14;101389.00;;;6.80
5571;BMP180;2808;51.240;6.794;2023-12-14T12:26:34;101388.00;;;6.80
5571;BMP180;2808;51.240;6.794;2023-12-14T12:29:18;101394.00;;;6.80
5571;BMP180;2808;51.240;6.794;2023-12-14T12:35:24;101391.00;;;6.90
5571;BMP180;2808;51.240;6.794;2023-12-14T12:41:28;101399.00;;;6.80
5571;BMP180;2808;51.240;6.794;2023-12-14T12:44:18;101407.00;;;6.70
5571;BMP180;2808;51.240;6.794;2023-12-14T12:46:52;101408.00;;;6.70
5571;BMP180;2808;51.240;6.794;2023-12-14T13:02:30;101434.00;;;6.60
5571;BMP180;2808;51.240;6.794;2023-12-14T13:05:19;101426.00;;;6.60
5571;BMP180;2808;51.240;6.794;2023-12-14T13:11:48;101448.00;;;6.70
5571;BMP180;2808;51.240;6.794;2023-12-14T13:14:56;101447.00;;;6.60
5571;BMP180;2808;51.240;6.794;2023-12-14T13:21:09;101458.00;;;6.60
5571;BMP180;2808;51.240;6.794;2023-12-14T13:24:11;101462.00;;;6.60
5571;BMP180;2808;51.240;6.794;2023-12-14T13:26:43;101462.00;;;6.50
5571;BMP180;2808;51.240;6.794;2023-12-14T13:30:43;101468.00;;;6.50
5571;BMP180;2808;51.240;6.794;2023-12-14T13:32:56;101484.00;;;6.50
5571;BMP180;2808;51.240;6.794;2023-12-14T13:39:04;101490.00;;;6.30
5571;BMP180;2808;51.240;6.794;2023-12-14T13:41:43;101497.00;;;6.20
5571;BMP180;2808;51.240;6.794;2023-12-14T13:44:36;101497.00;;;6.20
5571;BMP180;2808;51.240;6.794;2023-12-14T13:47:08;101503.00;;;6.20
5571;BMP180;2808;51.240;6.794;2023-12-14T13:49:56;101501.00;;;6.20
5571;BMP180;2808;51.240;6.794;2023-12-14T13:52:27;101505.00;;;6.10
5571;BMP180;2808;51.240;6.794;2023-12-14T13:58:35;101529.00;;;6.20
5571;BMP180;2808;51.240;6.794;2023-12-14T14:01:51;101525.00;;;6.20
5571;BMP180;2808;51.240;6.794;2023-12-14T14:11:40;101551.00;;;6.20
5571;BMP180;2808;51.240;6.794;2023-12-14T14:17:54;101555.00;;;6.30
5571;BMP180;2808;51.240;6.794;2023-12-14T14:20:45;101571.00;;;6.30
5571;BMP180;2808;51.240;6.794;2023-12-14T14:23:26;101568.00;;;6.30
5571;BMP180;2808;51.240;6.794;2023-12-14T14:26:08;101574.00;;;6.40
5571;BMP180;2808;51.240;6.794;2023-12-14T14:29:08;101583.00;;;6.30
5571;BMP180;2808;51.240;6.794;2023-12-14T14:32:08;101586.00;;;6.30
5571;BMP180;2808;51.240;6.794;2023-12-14T14:35:14;101593.00;;;6.30
5571;BMP180;2808;51.240;6.794;2023-12-14T14:37:53;101602.00;;;6.30
5571;BMP180;2808;51.240;6.794;2023-12-14T14:40:23;101614.00;;;6.30
5571;BMP180;2808;51.240;6.794;2023-12-14T14:42:54;101609.00;;;6.30
5571;BMP180;2808;51.240;6.794;2023-12-14T14:45:22;101608.00;;;6.30
5571;BMP180;2808;51.240;6.794;2023-12-14T14:47:56;101604.00;;;6.30
5571;BMP180;2808;51.240;6.794;2023-12-14T14:50:37;101601.00;;;6.30
5571;BMP180;2808;51.240;6.794;2023-12-14T14:59:55;101615.00;;;6.20
5571;BMP180;2808;51.240;6.794;2023-12-14T15:02:39;101627.00;;;6.10
5571;BMP180;2808;51.240;6.794;2023-12-14T15:05:22;101630.00;;;6.10
5571;BMP180;2808;51.240;6.794;2023-12-14T15:08:01;101636.00;;;6.10
5571;BMP180;2808;51.240;6.794;2023-12-14T15:10:29;101634.00;;;6.10
5571;BMP180;2808;51.240;6.794;2023-12-14T15:13:03;101639.00;;;6.10
5571;BMP180;2808;51.240;6.794;2023-12-14T15:15:37;101646.00;;;6.10
5571;BMP180;2808;51.240;6.794;2023-12-14T15:18:30;101651.00;;;6.10
5571;BMP180;2808;51.240;6.794;2023-12-14T15:22:04;101656.00;;;6.10
5571;BMP180;2808;51.240;6.794;2023-12-14T15:28:22;101674.00;;;6.10
5571;BMP180;2808;51.240;6.794;2023-12-14T15:31:38;101674.00;;;6.10
5571;BMP180;2808;51.240;6.794;2023-12-14T15:34:18;101674.00;;;6.10
5571;BMP180;2808;51.240;6.794;2023-12-14T15:37:24;101678.00;;;6.10
5571;BMP180;2808;51.240;6.794;2023-12-14T15:40:32;101690.00;;;6.10
5571;BMP180;2808;51.240;6.794;2023-12-14T15:43:53;101688.00;;;6.10
5571;BMP180;2808;51.240;6.794;2023-12-14T15:47:07;101700.00;;;6.10
5571;BMP180;2808;51.240;6.794;2023-12-14T15:50:13;101714.00;;;6.10
5571;BMP180;2808;51.240;6.794;2023-12-14T15:53:30;101708.00;;;6.10
5571;BMP180;2808;51.240;6.794;2023-12-14T15:56:15;101713.00;;;6.10
5571;BMP180;2808;51.240;6.794;2023-12-14T15:58:50;101713.00;;;6.10
5571;BMP180;2808;51.240;6.794;2023-12-14T16:01:32;101721.00;;;6.10
5571;BMP180;2808;51.240;6.794;2023-12-14T16:04:44;101728.00;;;6.10
5571;BMP180;2808;51.240;6.794;2023-12-14T16:07:26;101738.00;;;6.10
5571;BMP180;2808;51.240;6.794;2023-12-14T16:09:56;101732.00;;;6.10
5571;BMP180;2808;51.240;6.794;2023-12-14T16:12:26;101736.00;;;6.10
5571;BMP180;2808;51.240;6.794;2023-12-14T16:15:16;101751.00;;;6.20
5571;BMP180;2808;51.240;6.794;2023-12-14T16:18:01;101749.00;;;6.20
5571;BMP180;2808;51.240;6.794;2023-12-14T16:20:38;101751.00;;;6.20
5571;BMP180;2808;51.240;6.794;2023-12-14T16:23:08;101753.00;;;6.30
5571;BMP180;2808;51.240;6.794;2023-12-14T16:38:52;101790.00;;;6.30
5571;BMP180;2808;51.240;6.794;2023-12-14T16:51:32;101794.00;;;6.20
5571;BMP180;2808;51.240;6.794;2023-12-14T16:54:52;101821.00;;;6.20
5571;BMP180;2808;51.240;6.794;2023-12-14T17:01:01;101816.00;;;6.20
5571;BMP180;2808;51.240;6.794;2023-12-14T17:06:30;101828.00;;;6.20
5571;BMP180;2808;51.240;6.794;2023-12-14T17:08:54;101831.00;;;6.10
5571;BMP180;2808;51.240;6.794;2023-12-14T17:11:54;101829.00;;;6.10
5571;BMP180;2808;51.240;6.794;2023-12-14T17:15:09;101840.00;;;6.10
5571;BMP180;2808;51.240;6.794;2023-12-14T17:21:54;101842.00;;;6.10
5571;BMP180;2808;51.240;6.794;2023-12-14T17:24:43;101849.00;;;6.00
5571;BMP180;2808;51.240;6.794;2023-12-14T17:27:58;101854.00;;;6.00
5571;BMP180;2808;51.240;6.794;2023-12-14T17:31:04;101862.00;;;6.00
5571;BMP180;2808;51.240;6.794;2023-12-14T17:35:13;101860.00;;;5.90